Time;durP1;ratioP1;P1;durP2;ratioP2;P2;SDS_P1;SDS_P2;PMS_P1;PMS_P2;Temp;Humidity;BMP_temperature;BMP_pressure;BME280_temperature;BME280_humidity;BME280_pressure;Samples;Min_cycle;Max_cycle;Signal;HPM_P1;HPM_P2
2022/05/03 00:03:58;;;;;;;5.78;5.20;;;;;;;;;;8259169;28;20109;-61
2022/05/03 00:08:01;;;;;;;9.13;5.70;;;;;;;;;;8262584;28;20090;-60
2022/05/03 00:12:03;;;;;;;8.93;5.93;;;;;;;;;;8261969;28;20443;-60
2022/05/03 00:16:05;;;;;;;6.03;5.43;;;;;;;;;;8260718;28;20505;-61
2022/05/03 00:20:05;;;;;;;7.55;5.63;;;;;;;;;;8259370;28;20040;-60
2022/05/03 00:24:06;;;;;;;6.25;5.28;;;;;;;;;;8260763;28;20056;-60
2022/05/03 00:28:06;;;;;;;8.43;5.90;;;;;;;;;;8262574;28;20022;-60
2022/05/03 00:32:07;;;;;;;7.25;5.47;;;;;;;;;;8259732;28;20034;-60
2022/05/03 00:36:07;;;;;;;6.28;5.45;;;;;;;;;;8260874;28;20534;-60
2022/05/03 00:40:10;;;;;;;5.90;4.93;;;;;;;;;;8259884;28;20158;-62
2022/05/03 00:44:58;;;;;;;6.90;5.70;;;;;;;;;;8257509;28;20033;-60
2022/05/03 00:48:52;;;;;;;6.82;5.55;;;;;;;;;;8259930;28;20092;-60
2022/05/03 00:52:55;;;;;;;5.68;5.18;;;;;;;;;;8260067;28;20060;-61
2022/05/03 00:57:25;;;;;;;8.27;5.93;;;;;;;;;;8260715;28;20111;-61
2022/05/03 01:01:29;;;;;;;7.50;5.80;;;;;;;;;;8252808;28;20048;-61
2022/05/03 01:05:44;;;;;;;9.88;5.95;;;;;;;;;;8260737;28;20132;-61
2022/05/03 01:09:56;;;;;;;7.07;5.30;;;;;;;;;;8259165;28;20040;-61
2022/05/03 01:14:05;;;;;;;6.43;5.70;;;;;;;;;;8256449;28;20060;-60
2022/05/03 01:18:06;;;;;;;9.68;5.97;;;;;;;;;;8256885;28;20790;-60
2022/05/03 01:22:08;;;;;;;7.20;5.45;;;;;;;;;;8257830;28;20034;-61
2022/05/03 01:26:11;;;;;;;5.75;5.22;;;;;;;;;;8259241;28;20029;-60
2022/05/03 01:30:11;;;;;;;9.02;5.32;;;;;;;;;;8257038;28;20114;-61
2022/05/03 01:34:13;;;;;;;7.28;5.70;;;;;;;;;;8257436;28;20056;-60
2022/05/03 01:38:13;;;;;;;5.78;5.18;;;;;;;;;;8258339;28;20030;-60
2022/05/03 01:42:33;;;;;;;5.78;5.22;;;;;;;;;;8257574;28;20029;-61
2022/05/03 01:46:35;;;;;;;7.25;5.53;;;;;;;;;;8257603;28;20089;-61
2022/05/03 01:50:41;;;;;;;8.05;5.45;;;;;;;;;;8258105;28;20014;-60
2022/05/03 01:54:47;;;;;;;7.07;5.70;;;;;;;;;;8255932;28;20044;-60
2022/05/03 01:58:50;;;;;;;7.25;5.30;;;;;;;;;;8258270;28;20689;-61
2022/05/03 02:02:56;;;;;;;8.52;5.13;;;;;;;;;;8258549;28;20993;-61
2022/05/03 02:07:19;;;;;;;5.95;5.07;;;;;;;;;;8258881;28;23149;-60
2022/05/03 02:11:22;;;;;;;7.13;5.22;;;;;;;;;;8258569;28;20034;-62
2022/05/03 02:15:27;;;;;;;8.00;5.28;;;;;;;;;;8258343;28;20434;-60
2022/05/03 02:19:43;;;;;;;7.13;5.65;;;;;;;;;;8257306;28;20727;-61
2022/05/03 02:23:50;;;;;;;8.77;5.15;;;;;;;;;;8257982;28;20033;-61
2022/05/03 02:27:58;;;;;;;6.53;5.13;;;;;;;;;;8259617;28;20028;-60
2022/05/03 02:32:03;;;;;;;6.60;5.20;;;;;;;;;;8258829;28;21050;-60
2022/05/03 02:36:06;;;;;;;6.28;5.50;;;;;;;;;;8256370;28;20105;-61
2022/05/03 02:40:07;;;;;;;8.60;5.28;;;;;;;;;;8263663;28;20018;-61
2022/05/03 02:44:08;;;;;;;7.32;5.65;;;;;;;;;;8264199;28;20026;-61
2022/05/03 02:48:14;;;;;;;8.02;5.35;;;;;;;;;;8261914;28;20045;-60
2022/05/03 02:52:44;;;;;;;6.80;5.72;;;;;;;;;;8261820;28;20024;-60
2022/05/03 02:57:06;;;;;;;6.72;5.45;;;;;;;;;;8251278;28;20501;-61
2022/05/03 03:05:29;;;;;;;5.90;4.60;;;;;;;;;;8260601;28;20080;-61
2022/05/03 03:09:43;;;;;;;7.90;4.90;;;;;;;;;;8263257;28;20017;-60
2022/05/03 03:14:00;;;;;;;6.25;5.30;;;;;;;;;;8261474;28;20963;-60
2022/05/03 03:18:04;;;;;;;9.00;4.95;;;;;;;;;;8262715;28;20881;-61
2022/05/03 03:22:11;;;;;;;7.05;5.15;;;;;;;;;;8259683;28;20033;-60
2022/05/03 03:26:12;;;;;;;7.63;5.15;;;;;;;;;;8261171;28;20029;-60
2022/05/03 03:30:12;;;;;;;6.88;5.10;;;;;;;;;;8259079;28;20051;-60
2022/05/03 03:34:13;;;;;;;6.22;5.50;;;;;;;;;;8260882;28;20022;-60
2022/05/03 03:38:14;;;;;;;7.05;5.50;;;;;;;;;;8261224;28;20098;-61
2022/05/03 03:42:14;;;;;;;9.07;5.77;;;;;;;;;;8260430;28;20021;-61
2022/05/03 03:46:14;;;;;;;11.68;5.70;;;;;;;;;;8261633;28;20261;-61
2022/05/03 03:50:14;;;;;;;6.78;6.05;;;;;;;;;;8259659;28;20026;-61
2022/05/03 03:54:15;;;;;;;6.38;5.30;;;;;;;;;;8263880;28;20137;-61
2022/05/03 03:58:15;;;;;;;6.63;5.45;;;;;;;;;;8260998;28;20065;-61
2022/05/03 04:02:16;;;;;;;6.20;5.60;;;;;;;;;;8259330;28;20394;-60
2022/05/03 04:06:16;;;;;;;7.38;6.13;;;;;;;;;;8260650;28;20029;-60
2022/05/03 04:10:17;;;;;;;7.05;5.60;;;;;;;;;;8261047;28;20026;-60
2022/05/03 04:14:18;;;;;;;5.93;5.22;;;;;;;;;;8261250;28;20080;-60
2022/05/03 04:18:18;;;;;;;6.50;5.13;;;;;;;;;;8258810;28;20038;-61
2022/05/03 04:22:31;;;;;;;6.50;5.38;;;;;;;;;;8258202;28;20024;-60
2022/05/03 04:26:32;;;;;;;7.32;5.80;;;;;;;;;;8260336;28;20034;-61
2022/05/03 04:30:32;;;;;;;10.03;5.20;;;;;;;;;;8258262;28;20041;-60
2022/05/03 04:34:32;;;;;;;7.83;5.17;;;;;;;;;;8260194;28;20025;-65
2022/05/03 04:38:33;;;;;;;5.95;4.82;;;;;;;;;;8259471;28;20049;-60
2022/05/03 04:42:33;;;;;;;6.65;5.22;;;;;;;;;;8259496;28;20018;-60
2022/05/03 04:46:34;;;;;;;7.43;5.30;;;;;;;;;;8256547;28;20129;-61
2022/05/03 04:50:34;;;;;;;6.15;5.22;;;;;;;;;;8259999;28;20022;-60
2022/05/03 04:54:37;;;;;;;6.35;5.75;;;;;;;;;;8259806;28;20030;-61
2022/05/03 04:58:38;;;;;;;6.80;5.37;;;;;;;;;;8258036;28;20128;-60
2022/05/03 05:02:38;;;;;;;12.57;5.82;;;;;;;;;;8256790;28;20153;-60
2022/05/03 05:06:38;;;;;;;6.35;5.75;;;;;;;;;;8259241;28;20059;-62
2022/05/03 05:10:38;;;;;;;7.73;5.63;;;;;;;;;;8258909;28;20072;-60
2022/05/03 05:14:38;;;;;;;6.97;5.82;;;;;;;;;;8259670;28;20040;-60
2022/05/03 05:18:39;;;;;;;6.80;5.75;;;;;;;;;;8257780;28;20030;-60
2022/05/03 05:22:39;;;;;;;8.27;5.75;;;;;;;;;;8259837;28;20021;-60
2022/05/03 05:26:41;;;;;;;8.43;5.50;;;;;;;;;;8257020;28;20034;-60
2022/05/03 05:30:42;;;;;;;7.50;5.43;;;;;;;;;;8288066;28;20034;-60
2022/05/03 05:34:42;;;;;;;6.90;5.47;;;;;;;;;;8258303;28;20569;-62
2022/05/03 05:38:42;;;;;;;7.25;5.53;;;;;;;;;;8263811;28;20548;-60
2022/05/03 05:42:43;;;;;;;6.70;5.30;;;;;;;;;;8258491;28;20030;-61
2022/05/03 05:46:43;;;;;;;6.60;5.40;;;;;;;;;;8262458;28;20173;-60
2022/05/03 05:50:43;;;;;;;8.50;5.85;;;;;;;;;;8256184;28;20033;-60
2022/05/03 05:54:43;;;;;;;6.03;5.28;;;;;;;;;;8257804;28;20061;-63
2022/05/03 05:58:44;;;;;;;9.00;6.13;;;;;;;;;;8258253;28;20030;-60
2022/05/03 06:02:44;;;;;;;6.57;5.63;;;;;;;;;;8252034;28;20366;-60
2022/05/03 06:06:44;;;;;;;8.20;6.10;;;;;;;;;;8247568;28;20042;-60
2022/05/03 06:10:45;;;;;;;8.93;5.72;;;;;;;;;;8251101;28;20271;-60
2022/05/03 06:14:45;;;;;;;6.00;5.40;;;;;;;;;;8263590;28;20131;-61
2022/05/03 06:18:45;;;;;;;8.85;5.63;;;;;;;;;;8262720;28;20109;-60
2022/05/03 06:22:46;;;;;;;8.52;6.18;;;;;;;;;;8264292;28;20024;-60
2022/05/03 06:26:46;;;;;;;11.52;5.70;;;;;;;;;;8265132;28;20029;-62
2022/05/03 06:30:46;;;;;;;9.23;5.80;;;;;;;;;;8295889;28;20037;-61
2022/05/03 06:34:47;;;;;;;5.95;5.35;;;;;;;;;;8263356;28;20033;-60
2022/05/03 06:38:47;;;;;;;6.15;5.50;;;;;;;;;;8265542;28;20021;-60
2022/05/03 06:42:47;;;;;;;7.20;5.78;;;;;;;;;;8263577;28;20519;-61
2022/05/03 06:46:49;;;;;;;6.20;5.55;;;;;;;;;;8264560;28;20112;-61
2022/05/03 06:50:49;;;;;;;5.43;4.93;;;;;;;;;;8263769;28;20956;-60
2022/05/03 06:54:49;;;;;;;7.20;5.40;;;;;;;;;;8265156;28;20038;-61
2022/05/03 06:58:49;;;;;;;7.63;5.10;;;;;;;;;;8264321;28;20026;-60
2022/05/03 07:02:50;;;;;;;5.85;5.25;;;;;;;;;;8261777;28;20048;-60
2022/05/03 07:06:50;;;;;;;8.80;5.40;;;;;;;;;;8262622;28;20032;-61
2022/05/03 07:10:50;;;;;;;8.07;5.85;;;;;;;;;;8262670;28;20033;-60
2022/05/03 07:14:51;;;;;;;6.75;5.60;;;;;;;;;;8260222;28;20124;-60
2022/05/03 07:23:11;;;;;;;6.03;5.13;;;;;;;;;;8257897;28;20757;-60
2022/05/03 07:27:13;;;;;;;9.85;5.40;;;;;;;;;;8260356;28;20025;-60
2022/05/03 07:31:13;;;;;;;8.52;5.35;;;;;;;;;;8256706;28;20048;-61
2022/05/03 07:35:14;;;;;;;7.28;5.32;;;;;;;;;;8260652;28;20140;-60
2022/05/03 07:39:14;;;;;;;9.53;5.53;;;;;;;;;;8262486;28;20026;-61
2022/05/03 07:43:15;;;;;;;6.57;5.47;;;;;;;;;;8265255;28;20273;-61
2022/05/03 07:47:16;;;;;;;6.40;5.47;;;;;;;;;;8262248;28;20143;-61
2022/05/03 07:51:19;;;;;;;6.30;5.07;;;;;;;;;;8263160;28;20049;-61
2022/05/03 07:55:19;;;;;;;6.53;4.83;;;;;;;;;;8263590;28;20037;-61
2022/05/03 07:59:23;;;;;;;6.93;6.00;;;;;;;;;;8264099;28;20048;-61
2022/05/03 08:03:23;;;;;;;8.30;5.20;;;;;;;;;;8259645;28;20034;-60
2022/05/03 08:07:23;;;;;;;6.00;5.40;;;;;;;;;;8261830;28;20034;-60
2022/05/03 08:11:24;;;;;;;5.70;5.05;;;;;;;;;;8261877;28;20030;-61
2022/05/03 08:15:24;;;;;;;8.95;5.63;;;;;;;;;;8262640;28;20045;-61
2022/05/03 08:19:25;;;;;;;7.57;5.43;;;;;;;;;;8254988;28;20526;-61
2022/05/03 08:23:25;;;;;;;6.85;5.22;;;;;;;;;;8257405;28;20145;-61
2022/05/03 08:27:25;;;;;;;10.03;5.20;;;;;;;;;;8260275;28;20029;-62
2022/05/03 08:31:26;;;;;;;7.82;5.20;;;;;;;;;;8259047;28;20148;-61
2022/05/03 08:35:26;;;;;;;10.88;5.65;;;;;;;;;;8287944;28;20507;-61
2022/05/03 08:43:45;;;;;;;6.53;4.80;;;;;;;;;;8257082;28;20041;-61
2022/05/03 08:47:46;;;;;;;6.13;4.70;;;;;;;;;;8258803;28;20034;-62
2022/05/03 08:51:48;;;;;;;7.20;5.60;;;;;;;;;;8259018;28;20022;-62
2022/05/03 08:55:50;;;;;;;8.77;5.27;;;;;;;;;;8258759;28;20030;-61
2022/05/03 08:59:52;;;;;;;10.23;5.22;;;;;;;;;;8257501;28;20868;-61
2022/05/03 09:03:52;;;;;;;7.50;5.38;;;;;;;;;;8260639;28;20799;-62
2022/05/03 09:07:54;;;;;;;6.45;4.63;;;;;;;;;;8259026;28;20164;-62
2022/05/03 09:11:54;;;;;;;9.20;4.47;;;;;;;;;;8256822;28;20032;-61
2022/05/03 09:15:56;;;;;;;6.33;5.20;;;;;;;;;;8259666;28;20037;-62
2022/05/03 09:19:56;;;;;;;5.65;4.60;;;;;;;;;;8260429;28;20091;-62
2022/05/03 09:24:01;;;;;;;8.93;5.10;;;;;;;;;;8266849;28;20026;-61
2022/05/03 09:28:15;;;;;;;6.05;4.35;;;;;;;;;;8266850;28;20041;-63
2022/05/03 09:32:34;;;;;;;6.63;5.15;;;;;;;;;;8260948;28;20040;-62
2022/05/03 09:36:45;;;;;;;6.15;4.97;;;;;;;;;;8253832;28;20407;-61
2022/05/03 09:40:46;;;;;;;5.82;4.85;;;;;;;;;;8259335;28;20109;-61
2022/05/03 09:44:52;;;;;;;5.25;4.40;;;;;;;;;;8261923;28;20316;-62
2022/05/03 09:48:54;;;;;;;6.80;4.78;;;;;;;;;;8255482;28;20065;-62
2022/05/03 09:52:55;;;;;;;6.15;4.60;;;;;;;;;;8256627;28;20145;-61
2022/05/03 09:56:56;;;;;;;6.00;4.45;;;;;;;;;;8255285;28;20109;-61
2022/05/03 10:00:58;;;;;;;7.30;5.22;;;;;;;;;;8254743;28;20225;-62
2022/05/03 10:04:58;;;;;;;6.40;4.80;;;;;;;;;;8255146;28;20751;-62
2022/05/03 10:08:59;;;;;;;7.85;4.90;;;;;;;;;;8257221;28;20105;-61
2022/05/03 10:12:59;;;;;;;7.47;4.45;;;;;;;;;;8254467;28;20143;-61
2022/05/03 10:21:24;;;;;;;7.45;4.50;;;;;;;;;;8255423;28;20036;-62
2022/05/03 10:25:51;;;;;;;5.07;4.28;;;;;;;;;;8254432;28;20256;-62
2022/05/03 10:30:10;;;;;;;10.23;4.80;;;;;;;;;;8255183;28;20034;-62
2022/05/03 10:34:30;;;;;;;7.53;5.40;;;;;;;;;;8254572;28;20025;-61
2022/05/03 10:38:35;;;;;;;6.72;4.82;;;;;;;;;;8260344;28;20046;-61
2022/05/03 10:42:36;;;;;;;4.93;4.35;;;;;;;;;;8255360;28;20026;-61
2022/05/03 10:46:36;;;;;;;8.60;4.63;;;;;;;;;;8255228;28;20521;-61
2022/05/03 10:50:38;;;;;;;6.13;5.50;;;;;;;;;;8253667;28;20491;-61
2022/05/03 10:54:57;;;;;;;5.25;4.60;;;;;;;;;;8256744;28;20059;-61
2022/05/03 10:59:26;;;;;;;5.85;4.70;;;;;;;;;;8257226;28;20084;-61
2022/05/03 11:03:27;;;;;;;5.68;4.30;;;;;;;;;;8253267;28;20030;-61
2022/05/03 11:07:29;;;;;;;6.07;5.00;;;;;;;;;;8262297;28;20156;-62
2022/05/03 11:11:40;;;;;;;6.85;4.43;;;;;;;;;;8260311;28;20029;-61
2022/05/03 11:16:00;;;;;;;6.93;4.40;;;;;;;;;;8260250;28;20041;-61
2022/05/03 11:20:00;;;;;;;7.95;4.97;;;;;;;;;;8258624;28;20022;-61
2022/05/03 11:24:00;;;;;;;7.10;5.07;;;;;;;;;;8261930;28;20056;-61
2022/05/03 11:28:01;;;;;;;6.38;5.05;;;;;;;;;;8259245;28;20030;-61
2022/05/03 11:32:01;;;;;;;7.95;5.35;;;;;;;;;;8259234;28;20033;-61
2022/05/03 11:36:02;;;;;;;9.68;5.22;;;;;;;;;;8256372;28;20021;-61
2022/05/03 11:40:04;;;;;;;6.28;4.40;;;;;;;;;;8260882;28;20033;-61
2022/05/03 11:44:05;;;;;;;6.95;4.90;;;;;;;;;;8260084;28;20032;-62
2022/05/03 11:48:06;;;;;;;4.78;4.30;;;;;;;;;;8265003;28;20034;-62
2022/05/03 11:56:29;;;;;;;7.13;4.10;;;;;;;;;;8261047;28;20033;-61
2022/05/03 12:00:42;;;;;;;8.15;4.80;;;;;;;;;;8259130;28;20869;-62
2022/05/03 12:05:02;;;;;;;5.03;4.50;;;;;;;;;;8258260;28;20059;-62
2022/05/03 12:09:03;;;;;;;4.95;4.07;;;;;;;;;;8259077;28;20029;-62
2022/05/03 12:13:05;;;;;;;5.57;4.30;;;;;;;;;;8258691;28;20087;-61
2022/05/03 12:17:05;;;;;;;4.50;4.10;;;;;;;;;;8259015;28;20079;-61
2022/05/03 12:21:14;;;;;;;5.47;4.07;;;;;;;;;;8260612;28;20144;-61
2022/05/03 12:25:27;;;;;;;6.15;4.95;;;;;;;;;;8258939;28;20018;-62
2022/05/03 12:29:27;;;;;;;6.50;4.97;;;;;;;;;;8259868;28;20601;-62
2022/05/03 12:33:27;;;;;;;5.30;3.75;;;;;;;;;;8258794;28;20040;-62
2022/05/03 12:37:28;;;;;;;7.15;3.83;;;;;;;;;;8260464;28;20909;-61
2022/05/03 12:41:31;;;;;;;8.90;4.00;;;;;;;;;;8257582;28;20030;-62
2022/05/03 12:45:33;;;;;;;6.57;4.10;;;;;;;;;;8257822;28;20042;-62
2022/05/03 12:49:37;;;;;;;3.80;3.42;;;;;;;;;;8258736;28;20029;-62
2022/05/03 12:53:46;;;;;;;4.90;3.63;;;;;;;;;;8261103;28;20053;-61
2022/05/03 13:02:07;;;;;;;7.28;4.10;;;;;;;;;;8257988;28;20108;-61
2022/05/03 13:06:07;;;;;;;5.20;3.65;;;;;;;;;;8257570;28;20084;-61
2022/05/03 13:10:11;;;;;;;5.03;3.97;;;;;;;;;;8256119;28;20018;-61
2022/05/03 13:14:13;;;;;;;4.47;4.00;;;;;;;;;;8258369;28;20422;-62
2022/05/03 13:18:13;;;;;;;4.88;3.92;;;;;;;;;;8252651;28;20038;-61
2022/05/03 13:22:14;;;;;;;5.05;3.50;;;;;;;;;;8254798;28;20533;-61
2022/05/03 13:26:14;;;;;;;4.30;3.63;;;;;;;;;;8258961;28;20079;-62
2022/05/03 13:30:15;;;;;;;7.15;3.10;;;;;;;;;;8256863;28;20026;-61
2022/05/03 13:34:15;;;;;;;5.07;3.38;;;;;;;;;;8257515;28;20026;-61
2022/05/03 13:42:35;;;;;;;4.38;3.65;;;;;;;;;;8255129;28;20056;-62
2022/05/03 13:46:35;;;;;;;3.90;3.60;;;;;;;;;;8256854;28;20033;-61
2022/05/03 13:50:37;;;;;;;3.17;2.90;;;;;;;;;;8257172;28;20441;-62
2022/05/03 13:54:37;;;;;;;6.63;3.50;;;;;;;;;;8255569;28;20030;-61
2022/05/03 13:58:38;;;;;;;3.90;3.30;;;;;;;;;;8257186;28;20022;-62
2022/05/03 14:02:40;;;;;;;5.85;3.55;;;;;;;;;;8254137;28;20168;-61
2022/05/03 14:06:41;;;;;;;3.72;3.40;;;;;;;;;;8285446;28;20034;-61
2022/05/03 14:10:41;;;;;;;8.75;3.20;;;;;;;;;;8256106;28;20135;-61
2022/05/03 14:14:41;;;;;;;5.93;3.60;;;;;;;;;;8256715;28;20804;-61
2022/05/03 14:18:44;;;;;;;3.87;3.03;;;;;;;;;;8254974;28;20069;-61
2022/05/03 14:22:44;;;;;;;7.37;3.20;;;;;;;;;;8255737;28;20022;-61
2022/05/03 14:26:45;;;;;;;3.95;3.55;;;;;;;;;;8254708;28;20133;-61
2022/05/03 14:30:46;;;;;;;5.27;3.77;;;;;;;;;;8252848;28;20042;-61
2022/05/03 14:34:46;;;;;;;5.38;3.50;;;;;;;;;;8260241;28;20103;-61
2022/05/03 14:38:47;;;;;;;8.10;3.80;;;;;;;;;;8256926;28;20622;-61
2022/05/03 14:42:47;;;;;;;4.57;3.30;;;;;;;;;;8259302;28;20022;-61
2022/05/03 14:46:50;;;;;;;3.87;3.20;;;;;;;;;;8259260;28;20036;-61
2022/05/03 14:50:51;;;;;;;4.38;3.60;;;;;;;;;;8267083;28;20057;-61
2022/05/03 14:54:58;;;;;;;5.47;3.70;;;;;;;;;;8264204;28;20038;-61
2022/05/03 15:03:17;;;;;;;6.25;3.58;;;;;;;;;;8257575;28;20128;-61
2022/05/03 15:07:19;;;;;;;4.50;3.73;;;;;;;;;;8257451;28;20030;-61
2022/05/03 15:11:19;;;;;;;5.38;3.30;;;;;;;;;;8257047;28;20100;-61
2022/05/03 15:15:21;;;;;;;7.32;4.10;;;;;;;;;;8257474;28;20026;-61
2022/05/03 15:19:23;;;;;;;3.80;3.40;;;;;;;;;;8256760;28;20091;-60
2022/05/03 15:27:42;;;;;;;5.80;3.80;;;;;;;;;;8257292;28;20866;-61
2022/05/03 15:31:43;;;;;;;6.97;3.78;;;;;;;;;;8255639;28;20046;-60
2022/05/03 15:35:43;;;;;;;5.22;3.40;;;;;;;;;;8255967;28;20132;-60
2022/05/03 15:39:43;;;;;;;5.88;3.33;;;;;;;;;;8257511;28;20022;-60
2022/05/03 15:43:46;;;;;;;5.50;3.40;;;;;;;;;;8255499;28;20068;-60
2022/05/03 15:47:47;;;;;;;3.85;3.10;;;;;;;;;;8255744;28;20045;-60
2022/05/03 15:51:50;;;;;;;4.18;3.78;;;;;;;;;;8258336;28;20037;-61
2022/05/03 15:55:53;;;;;;;3.95;3.17;;;;;;;;;;8258000;28;20025;-61
2022/05/03 15:59:54;;;;;;;3.92;3.40;;;;;;;;;;8257087;28;20113;-61
2022/05/03 16:03:54;;;;;;;3.63;3.33;;;;;;;;;;8256786;28;20107;-61
2022/05/03 16:07:54;;;;;;;3.60;3.30;;;;;;;;;;8252901;28;20479;-60
2022/05/03 16:11:56;;;;;;;4.63;3.58;;;;;;;;;;8253530;28;20065;-60
2022/05/03 16:15:56;;;;;;;4.50;3.05;;;;;;;;;;8255807;28;20107;-60
2022/05/03 16:19:57;;;;;;;4.75;3.22;;;;;;;;;;8254720;28;20030;-60
2022/05/03 16:23:58;;;;;;;6.15;3.40;;;;;;;;;;8256979;28;20032;-60
2022/05/03 16:27:59;;;;;;;6.13;3.35;;;;;;;;;;8254535;28;20088;-60
2022/05/03 16:31:59;;;;;;;6.03;3.40;;;;;;;;;;8253048;28;20026;-60
2022/05/03 16:42:08;;;;;;;5.82;3.38;;;;;;;;;;8253040;28;20114;-60
2022/05/03 16:44:39;;;;;;;3.10;2.90;;;;;;;;;;8252123;28;20033;-59
2022/05/03 16:48:40;;;;;;;5.13;3.35;;;;;;;;;;8254542;28;20756;-60
2022/05/03 16:52:40;;;;;;;4.95;3.45;;;;;;;;;;8252303;28;20030;-61
2022/05/03 16:56:40;;;;;;;3.65;3.35;;;;;;;;;;8254910;28;20466;-60
2022/05/03 17:00:41;;;;;;;4.72;3.17;;;;;;;;;;8255380;28;20906;-60
2022/05/03 17:04:44;;;;;;;6.25;3.53;;;;;;;;;;8257186;28;20034;-60
2022/05/03 17:08:45;;;;;;;5.28;3.30;;;;;;;;;;8258481;28;20029;-60
2022/05/03 17:12:46;;;;;;;4.30;3.15;;;;;;;;;;8255884;28;20041;-60
2022/05/03 17:16:49;;;;;;;4.75;2.90;;;;;;;;;;8255776;28;20104;-60
2022/05/03 17:20:49;;;;;;;6.53;3.50;;;;;;;;;;8257413;28;20813;-60
2022/05/03 17:24:51;;;;;;;3.33;2.93;;;;;;;;;;8257403;28;20076;-60
2022/05/03 17:28:57;;;;;;;9.02;3.47;;;;;;;;;;8257144;28;20158;-60
2022/05/03 17:32:57;;;;;;;3.20;2.90;;;;;;;;;;8255623;28;20042;-60
2022/05/03 17:36:57;;;;;;;3.25;2.75;;;;;;;;;;8256771;28;20025;-60
2022/05/03 17:41:00;;;;;;;3.60;2.22;;;;;;;;;;8257322;28;20025;-60
2022/05/03 17:45:01;;;;;;;3.08;2.47;;;;;;;;;;8254206;28;20076;-60
2022/05/03 17:49:01;;;;;;;2.60;2.40;;;;;;;;;;8256318;28;20037;-61
2022/05/03 17:57:20;;;;;;;3.38;2.53;;;;;;;;;;8253951;28;20156;-60
2022/05/03 18:01:21;;;;;;;4.07;2.30;;;;;;;;;;8255087;28;20061;-60
2022/05/03 18:05:23;;;;;;;2.45;2.03;;;;;;;;;;8254324;28;20272;-61
2022/05/03 18:09:24;;;;;;;2.50;2.30;;;;;;;;;;8253948;28;20021;-60
2022/05/03 18:13:24;;;;;;;2.47;2.13;;;;;;;;;;8254546;28;20117;-60
2022/05/03 18:17:27;;;;;;;5.13;2.40;;;;;;;;;;8255169;28;20132;-60
2022/05/03 18:21:28;;;;;;;5.43;2.10;;;;;;;;;;8249348;28;20030;-60
2022/05/03 18:25:29;;;;;;;2.67;2.40;;;;;;;;;;8252978;28;20034;-60
2022/05/03 18:29:29;;;;;;;2.35;2.15;;;;;;;;;;8252338;28;20056;-60
2022/05/03 18:33:29;;;;;;;2.40;2.20;;;;;;;;;;8251330;28;20034;-60
2022/05/03 18:37:29;;;;;;;2.60;2.22;;;;;;;;;;8251173;28;20026;-59
2022/05/03 18:41:32;;;;;;;3.63;2.30;;;;;;;;;;8249990;28;20034;-60
2022/05/03 18:45:33;;;;;;;3.13;2.38;;;;;;;;;;8252611;28;20791;-60
2022/05/03 18:49:33;;;;;;;3.05;2.40;;;;;;;;;;8253696;28;20130;-60
2022/05/03 18:53:33;;;;;;;2.85;2.42;;;;;;;;;;8255510;28;20026;-60
2022/05/03 18:57:35;;;;;;;2.55;2.35;;;;;;;;;;8255400;28;20112;-60
2022/05/03 19:01:36;;;;;;;3.75;2.70;;;;;;;;;;8249592;28;20045;-60
2022/05/03 19:05:36;;;;;;;4.25;2.60;;;;;;;;;;8253365;28;20030;-60
2022/05/03 19:09:36;;;;;;;2.80;2.60;;;;;;;;;;8252397;28;20037;-61
2022/05/03 19:13:36;;;;;;;4.05;2.78;;;;;;;;;;8251642;28;20025;-59
2022/05/03 19:17:39;;;;;;;3.08;2.80;;;;;;;;;;8253075;28;20160;-60
2022/05/03 19:21:39;;;;;;;5.00;3.67;;;;;;;;;;8257611;28;20414;-60
2022/05/03 19:34:17;;;;;;;4.10;3.70;;;;;;;;;;8255435;28;20096;-59
2022/05/03 19:38:19;;;;;;;5.40;3.50;;;;;;;;;;8262068;28;20030;-59
2022/05/03 19:42:19;;;;;;;4.38;3.20;;;;;;;;;;8256512;28;20029;-59
2022/05/03 19:46:19;;;;;;;3.63;3.23;;;;;;;;;;8258922;28;20574;-60
2022/05/03 19:50:19;;;;;;;4.22;3.42;;;;;;;;;;8256334;28;20018;-60
2022/05/03 19:54:20;;;;;;;3.70;3.33;;;;;;;;;;8259429;28;20486;-59
2022/05/03 19:58:20;;;;;;;3.15;2.85;;;;;;;;;;8256416;28;20300;-60
2022/05/03 20:02:20;;;;;;;3.87;3.17;;;;;;;;;;8258037;28;20422;-60
2022/05/03 20:06:20;;;;;;;3.58;3.13;;;;;;;;;;8257623;28;20567;-61
2022/05/03 20:10:23;;;;;;;4.07;3.55;;;;;;;;;;8259867;28;20030;-60
2022/05/03 20:14:26;;;;;;;5.82;4.30;;;;;;;;;;8256257;28;20116;-60
2022/05/03 20:18:27;;;;;;;4.93;3.63;;;;;;;;;;8255581;28;20049;-60
2022/05/03 20:22:27;;;;;;;4.43;3.40;;;;;;;;;;8258302;28;20479;-60
2022/05/03 20:26:27;;;;;;;5.30;3.85;;;;;;;;;;8259631;28;20049;-60
2022/05/03 20:30:27;;;;;;;4.40;3.42;;;;;;;;;;8254539;28;20042;-60
2022/05/03 20:34:27;;;;;;;3.83;3.53;;;;;;;;;;8258127;28;20545;-61
2022/05/03 20:38:29;;;;;;;4.25;3.50;;;;;;;;;;8257622;28;20490;-60
2022/05/03 20:42:29;;;;;;;5.68;3.70;;;;;;;;;;8256060;28;20888;-60
2022/05/03 20:50:49;;;;;;;4.88;3.88;;;;;;;;;;8256654;28;20104;-61
2022/05/03 20:54:49;;;;;;;7.30;4.00;;;;;;;;;;8257838;28;20034;-61
2022/05/03 20:58:49;;;;;;;8.70;5.23;;;;;;;;;;8258052;28;20060;-59
2022/05/03 21:02:49;;;;;;;6.22;4.13;;;;;;;;;;8256629;28;20401;-59
2022/05/03 21:06:50;;;;;;;5.30;4.37;;;;;;;;;;8257136;28;20112;-60
2022/05/03 21:10:50;;;;;;;7.60;4.50;;;;;;;;;;8258978;28;20034;-60
2022/05/03 21:14:50;;;;;;;5.38;4.70;;;;;;;;;;8254903;28;20034;-60
2022/05/03 21:18:51;;;;;;;5.50;4.85;;;;;;;;;;8254936;28;20030;-59
2022/05/03 21:22:51;;;;;;;6.17;4.83;;;;;;;;;;8257092;28;20030;-59
2022/05/03 21:26:51;;;;;;;5.47;4.77;;;;;;;;;;8252318;28;20288;-60
2022/05/03 21:30:51;;;;;;;7.27;5.50;;;;;;;;;;8254779;28;20046;-60
2022/05/03 21:34:52;;;;;;;6.00;5.25;;;;;;;;;;8253987;28;20389;-60
2022/05/03 21:38:52;;;;;;;7.72;5.70;;;;;;;;;;8256444;28;20021;-60
2022/05/03 21:42:53;;;;;;;9.33;5.50;;;;;;;;;;8254146;28;20061;-61
2022/05/03 21:46:53;;;;;;;7.57;5.97;;;;;;;;;;8254849;28;21323;-59
2022/05/03 21:50:53;;;;;;;5.88;5.28;;;;;;;;;;8256994;28;20252;-60
2022/05/03 21:54:54;;;;;;;12.48;5.53;;;;;;;;;;8257613;28;20034;-60
2022/05/03 21:58:54;;;;;;;7.97;5.75;;;;;;;;;;8255225;28;20715;-60
2022/05/03 22:02:54;;;;;;;9.03;5.70;;;;;;;;;;8252529;28;20038;-60
2022/05/03 22:06:55;;;;;;;7.40;5.50;;;;;;;;;;8253585;28;20279;-60
2022/05/03 22:10:56;;;;;;;7.10;6.07;;;;;;;;;;8256851;28;20796;-60
2022/05/03 22:14:56;;;;;;;7.95;6.13;;;;;;;;;;8256362;28;20025;-60
2022/05/03 22:18:56;;;;;;;6.43;5.70;;;;;;;;;;8251635;28;20092;-61
2022/05/03 22:22:57;;;;;;;5.97;5.15;;;;;;;;;;8254352;28;20026;-60
2022/05/03 22:26:57;;;;;;;7.47;5.55;;;;;;;;;;8256033;28;20025;-60
2022/05/03 22:30:58;;;;;;;7.22;5.25;;;;;;;;;;8254533;28;20977;-60
2022/05/03 22:34:58;;;;;;;6.10;5.25;;;;;;;;;;8254078;28;20077;-61
2022/05/03 22:38:58;;;;;;;9.57;5.53;;;;;;;;;;8254953;28;20017;-60
2022/05/03 22:42:58;;;;;;;8.70;5.43;;;;;;;;;;8255686;28;20018;-60
2022/05/03 22:46:59;;;;;;;6.53;5.18;;;;;;;;;;8255658;28;21128;-61
2022/05/03 22:50:59;;;;;;;6.67;5.77;;;;;;;;;;8252996;28;20025;-60
2022/05/03 22:54:59;;;;;;;6.82;6.05;;;;;;;;;;8256884;28;20273;-60
2022/05/03 22:58:59;;;;;;;7.57;6.35;;;;;;;;;;8258466;28;20031;-60
2022/05/03 23:03:00;;;;;;;8.30;5.90;;;;;;;;;;8261259;28;20059;-61
2022/05/03 23:07:00;;;;;;;8.70;6.82;;;;;;;;;;8260194;28;20062;-61
2022/05/03 23:11:00;;;;;;;8.70;7.00;;;;;;;;;;8260945;28;20018;-60
2022/05/03 23:15:00;;;;;;;8.73;6.40;;;;;;;;;;8263020;28;20021;-60
2022/05/03 23:19:01;;;;;;;9.32;6.50;;;;;;;;;;8261457;28;20033;-60
2022/05/03 23:23:01;;;;;;;7.20;5.97;;;;;;;;;;8263266;28;20021;-60
2022/05/03 23:27:02;;;;;;;6.15;5.53;;;;;;;;;;8260251;28;20037;-61
2022/05/03 23:31:02;;;;;;;6.45;5.75;;;;;;;;;;8262772;28;20139;-61
2022/05/03 23:35:09;;;;;;;8.83;5.63;;;;;;;;;;8261933;28;20467;-60
2022/05/03 23:39:09;;;;;;;5.68;5.07;;;;;;;;;;8261861;28;20457;-60
2022/05/03 23:43:09;;;;;;;7.00;6.00;;;;;;;;;;8260701;28;20136;-60
2022/05/03 23:47:10;;;;;;;10.15;6.68;;;;;;;;;;8261417;28;20392;-60
2022/05/03 23:51:10;;;;;;;10.55;6.47;;;;;;;;;;8259854;28;20052;-60
2022/05/03 23:55:11;;;;;;;9.93;6.67;;;;;;;;;;8260159;28;20026;-60
2022/05/03 23:59:12;;;;;;;7.15;6.15;;;;;;;;;;8260659;28;20022;-61
